Time;durP1;ratioP1;P1;durP2;ratioP2;P2;SDS_P1;SDS_P2;PMS_P1;PMS_P2;Temp;Humidity;BMP_temperature;BMP_pressure;BME280_temperature;BME280_humidity;BME280_pressure;Samples;Min_cycle;Max_cycle;Signal;HPM_P1;HPM_P2
2023/04/22 00:00:10;;;;;;;2.45;2.20;;;16.40;57.50;;;;;;5075134;28;20596;-61
2023/04/22 00:02:36;;;;;;;2.72;2.53;;;16.40;57.50;;;;;;5075453;28;20228;-62
2023/04/22 00:05:02;;;;;;;2.45;2.35;;;16.30;57.40;;;;;;5074751;28;20182;-61
2023/04/22 00:07:28;;;;;;;2.50;2.30;;;16.30;57.50;;;;;;5074827;28;20181;-61
2023/04/22 00:09:53;;;;;;;2.58;2.38;;;16.30;57.40;;;;;;5075363;28;20175;-61
2023/04/22 00:12:19;;;;;;;2.28;2.10;;;16.40;57.60;;;;;;5074281;28;20175;-61
2023/04/22 00:14:44;;;;;;;2.30;2.10;;;16.30;57.50;;;;;;5075287;28;20185;-61
2023/04/22 00:17:10;;;;;;;2.35;2.15;;;16.30;57.50;;;;;;5074006;28;20537;-61
2023/04/22 00:19:36;;;;;;;2.38;2.17;;;16.30;57.50;;;;;;5075172;28;20682;-61
2023/04/22 00:22:02;;;;;;;2.13;1.92;;;16.30;57.40;;;;;;5074908;28;20176;-61
2023/04/22 00:24:28;;;;;;;2.47;2.28;;;16.30;57.50;;;;;;5073938;28;20230;-61
2023/04/22 00:26:53;;;;;;;2.30;2.10;;;16.30;57.50;;;;;;5074922;28;20297;-61
2023/04/22 00:29:19;;;;;;;2.60;2.40;;;16.30;57.50;;;;;;5074725;28;20544;-62
2023/04/22 00:31:44;;;;;;;2.55;2.35;;;16.30;57.50;;;;;;5074007;28;20558;-61
2023/04/22 00:34:10;;;;;;;1.90;1.67;;;16.30;57.50;;;;;;5074369;28;20216;-63
2023/04/22 00:36:35;;;;;;;2.10;1.85;;;16.30;57.50;;;;;;5074722;28;20627;-62
2023/04/22 00:39:01;;;;;;;2.28;2.08;;;16.30;57.50;;;;;;5073811;28;20625;-61
2023/04/22 00:41:27;;;;;;;2.20;1.80;;;16.30;57.60;;;;;;5073373;28;20220;-61
2023/04/22 00:43:52;;;;;;;2.97;2.10;;;16.30;57.60;;;;;;5074843;28;20174;-61
2023/04/22 00:46:18;;;;;;;2.20;2.00;;;16.30;57.50;;;;;;5072353;28;20166;-61
2023/04/22 00:48:44;;;;;;;2.67;2.47;;;16.30;57.60;;;;;;5073185;28;20238;-60
2023/04/22 00:51:09;;;;;;;2.30;2.10;;;16.20;57.50;;;;;;5074122;28;20174;-61
2023/04/22 00:53:35;;;;;;;2.10;1.98;;;16.20;57.50;;;;;;5073595;28;20768;-61
2023/04/22 00:56:00;;;;;;;2.25;2.05;;;16.20;58.10;;;;;;5074250;28;20261;-61
2023/04/22 00:58:27;;;;;;;2.17;1.98;;;16.20;57.50;;;;;;5072802;28;20277;-62
2023/04/22 01:00:52;;;;;;;2.08;1.98;;;16.30;57.60;;;;;;5073439;28;20182;-61
2023/04/22 01:03:19;;;;;;;3.20;1.98;;;16.30;57.60;;;;;;5072790;28;20166;-62
2023/04/22 01:05:46;;;;;;;2.63;2.20;;;16.20;57.50;;;;;;5074187;28;20548;-61
2023/04/22 01:08:11;;;;;;;2.33;2.13;;;16.20;57.50;;;;;;5071815;28;20170;-61
2023/04/22 01:10:37;;;;;;;2.10;2.00;;;16.20;57.50;;;;;;5074231;28;20224;-60
2023/04/22 01:13:02;;;;;;;2.40;2.20;;;16.20;57.60;;;;;;5074013;28;20206;-61
2023/04/22 01:15:28;;;;;;;3.25;1.80;;;16.20;57.60;;;;;;5073111;28;20174;-62
2023/04/22 01:17:53;;;;;;;1.90;1.80;;;16.20;57.50;;;;;;5074062;28;20178;-61
2023/04/22 01:20:20;;;;;;;2.38;2.08;;;16.20;57.50;;;;;;5073618;28;20594;-61
2023/04/22 01:22:46;;;;;;;2.20;2.00;;;16.00;57.50;;;;;;5073463;28;20175;-60
2023/04/22 01:25:11;;;;;;;2.03;1.83;;;16.20;57.60;;;;;;5072538;28;20601;-62
2023/04/22 01:27:37;;;;;;;1.98;1.88;;;16.20;57.50;;;;;;5073167;28;20174;-61
2023/04/22 01:30:04;;;;;;;1.98;1.88;;;16.20;57.60;;;;;;5073858;28;20185;-62
2023/04/22 01:32:29;;;;;;;2.22;2.03;;;16.20;57.60;;;;;;5073681;28;20194;-62
2023/04/22 01:34:55;;;;;;;1.83;1.73;;;16.20;57.60;;;;;;5071602;28;20177;-62
2023/04/22 01:37:21;;;;;;;2.33;2.13;;;16.20;57.60;;;;;;5073341;28;20170;-61
2023/04/22 01:39:47;;;;;;;2.22;1.75;;;16.10;57.50;;;;;;5073500;28;20587;-61
2023/04/22 01:42:12;;;;;;;2.03;1.90;;;16.20;57.60;;;;;;5071492;28;20170;-61
2023/04/22 01:44:38;;;;;;;1.90;1.80;;;16.10;57.60;;;;;;5072417;28;20170;-61
2023/04/22 01:47:04;;;;;;;2.20;2.00;;;16.10;57.50;;;;;;5073419;28;20633;-61
2023/04/22 01:49:29;;;;;;;1.88;1.70;;;16.10;58.10;;;;;;5072588;28;20171;-61
2023/04/22 01:51:56;;;;;;;1.92;1.83;;;16.10;57.60;;;;;;5073361;28;20162;-61
2023/04/22 01:54:22;;;;;;;1.83;1.70;;;16.10;57.50;;;;;;5072785;28;20225;-61
2023/04/22 01:56:52;;;;;;;2.03;1.92;;;16.10;57.50;;;;;;5072607;28;20205;-62
2023/04/22 01:59:18;;;;;;;2.63;2.00;;;16.10;57.60;;;;;;5072726;28;20174;-62
2023/04/22 02:01:44;;;;;;;2.00;1.80;;;16.10;57.50;;;;;;5073154;28;20174;-62
2023/04/22 02:04:09;;;;;;;2.25;1.92;;;16.10;57.60;;;;;;5072008;28;20248;-61
2023/04/22 02:06:35;;;;;;;1.73;1.63;;;16.10;57.60;;;;;;5073207;28;20171;-61
2023/04/22 02:09:00;;;;;;;1.73;1.63;;;16.10;57.60;;;;;;5073056;28;20174;-61
2023/04/22 02:11:26;;;;;;;2.17;2.08;;;16.10;57.60;;;;;;5071894;28;20178;-61
2023/04/22 02:13:51;;;;;;;1.80;1.70;;;16.10;58.00;;;;;;5072725;28;20217;-61
2023/04/22 02:16:17;;;;;;;1.73;1.63;;;16.10;57.60;;;;;;5072384;28;20171;-60
2023/04/22 02:18:42;;;;;;;2.25;2.05;;;16.10;57.60;;;;;;5071892;28;20543;-60
2023/04/22 02:21:08;;;;;;;1.85;1.75;;;16.10;57.60;;;;;;5072604;28;20630;-61
2023/04/22 02:23:34;;;;;;;2.38;2.00;;;16.10;57.60;;;;;;5072726;28;20221;-60
2023/04/22 02:26:00;;;;;;;1.80;1.70;;;16.10;57.60;;;;;;5070854;28;20171;-61
2023/04/22 02:28:26;;;;;;;1.77;1.67;;;16.00;57.60;;;;;;5072567;28;20177;-61
2023/04/22 02:30:51;;;;;;;1.70;1.60;;;16.00;57.60;;;;;;5072164;28;20177;-61
2023/04/22 02:33:17;;;;;;;2.15;1.95;;;16.00;58.20;;;;;;5072331;28;20210;-62
2023/04/22 02:35:42;;;;;;;2.35;1.95;;;16.00;57.60;;;;;;5072581;28;20208;-61
2023/04/22 02:38:09;;;;;;;2.20;1.85;;;16.00;57.60;;;;;;5071476;28;20204;-61
2023/04/22 02:40:34;;;;;;;2.80;1.65;;;16.00;57.60;;;;;;5072898;28;20182;-61
2023/04/22 02:43:00;;;;;;;1.67;1.55;;;16.00;57.60;;;;;;5072532;28;20175;-61
2023/04/22 02:45:25;;;;;;;1.70;1.60;;;16.00;57.60;;;;;;5071427;28;20633;-61
2023/04/22 02:47:51;;;;;;;6.10;2.20;;;16.00;57.60;;;;;;5072481;28;20602;-60
2023/04/22 02:50:16;;;;;;;1.83;1.70;;;16.00;57.60;;;;;;5072238;28;20655;-60
2023/04/22 02:52:42;;;;;;;1.98;1.73;;;16.00;57.60;;;;;;5072013;28;20649;-61
2023/04/22 02:55:08;;;;;;;2.03;1.92;;;16.00;57.60;;;;;;5072129;28;20250;-61
2023/04/22 02:57:34;;;;;;;2.10;2.00;;;16.00;57.60;;;;;;5072570;28;20178;-61
2023/04/22 02:59:59;;;;;;;1.80;1.70;;;16.00;57.70;;;;;;5071680;28;20633;-61
2023/04/22 03:02:25;;;;;;;1.73;1.63;;;16.00;57.60;;;;;;5071989;28;20645;-61
2023/04/22 03:04:53;;;;;;;1.73;1.63;;;16.00;57.60;;;;;;5073346;28;20170;-61
2023/04/22 03:07:18;;;;;;;1.80;1.70;;;16.00;57.70;;;;;;5075786;28;20189;-61
2023/04/22 03:09:44;;;;;;;1.75;1.65;;;16.00;57.70;;;;;;5076603;28;20578;-60
2023/04/22 03:12:10;;;;;;;1.70;1.58;;;16.00;57.70;;;;;;5076041;28;20181;-61
2023/04/22 03:14:35;;;;;;;1.92;1.83;;;16.00;57.70;;;;;;5075334;28;20217;-61
2023/04/22 03:17:01;;;;;;;1.80;1.70;;;15.90;57.60;;;;;;5075982;28;20212;-61
2023/04/22 03:19:26;;;;;;;1.85;1.70;;;16.00;57.70;;;;;;5075938;28;20210;-62
2023/04/22 03:21:52;;;;;;;1.70;1.60;;;16.00;57.70;;;;;;5075540;28;20176;-61
2023/04/22 03:24:17;;;;;;;1.88;1.77;;;16.00;57.70;;;;;;5075831;28;20230;-61
2023/04/22 03:26:43;;;;;;;1.98;1.88;;;16.00;57.70;;;;;;5076287;28;20645;-60
2023/04/22 03:29:08;;;;;;;1.65;1.55;;;16.00;57.70;;;;;;5075064;28;20252;-61
2023/04/22 03:31:34;;;;;;;2.10;1.90;;;16.00;57.70;;;;;;5075870;28;20171;-62
2023/04/22 03:34:03;;;;;;;2.08;1.88;;;16.00;57.70;;;;;;5075447;28;20216;-62
2023/04/22 03:36:29;;;;;;;1.90;1.80;;;16.00;57.70;;;;;;5075568;28;20185;-62
2023/04/22 03:38:55;;;;;;;1.65;1.55;;;15.90;57.60;;;;;;5076063;28;20183;-61
2023/04/22 03:41:22;;;;;;;1.90;1.80;;;15.90;57.70;;;;;;5074714;28;20271;-61
2023/04/22 03:43:47;;;;;;;1.95;1.80;;;15.90;57.70;;;;;;5075834;28;20174;-61
2023/04/22 03:46:13;;;;;;;1.88;1.77;;;15.90;57.70;;;;;;5075537;28;20178;-60
2023/04/22 03:48:38;;;;;;;1.88;1.77;;;15.90;57.70;;;;;;5075183;28;20178;-61
2023/04/22 03:51:04;;;;;;;1.55;1.45;;;16.00;57.70;;;;;;5075773;28;20166;-61
2023/04/22 03:53:29;;;;;;;1.77;1.67;;;15.90;57.70;;;;;;5075739;28;20206;-61
2023/04/22 03:55:55;;;;;;;2.03;1.92;;;15.90;57.70;;;;;;5074841;28;20582;-61
2023/04/22 03:58:20;;;;;;;2.10;1.92;;;15.90;57.70;;;;;;5075027;28;20182;-62
2023/04/22 04:00:47;;;;;;;2.67;2.00;;;15.90;57.70;;;;;;5075095;28;20166;-61
2023/04/22 04:03:12;;;;;;;1.90;1.80;;;15.90;58.30;;;;;;5074382;28;20258;-61
2023/04/22 04:05:38;;;;;;;1.80;1.70;;;15.90;57.70;;;;;;5075243;28;20644;-61
2023/04/22 04:08:03;;;;;;;1.80;1.70;;;15.90;57.70;;;;;;5074186;28;20693;-60
2023/04/22 04:10:29;;;;;;;1.60;1.50;;;15.90;57.70;;;;;;5074297;28;20739;-60
2023/04/22 04:12:54;;;;;;;1.80;1.70;;;15.90;57.70;;;;;;5075053;28;20198;-61
2023/04/22 04:15:20;;;;;;;1.73;1.63;;;15.90;57.70;;;;;;5074768;28;20198;-61
2023/04/22 04:17:46;;;;;;;1.70;1.60;;;15.90;57.70;;;;;;5074420;28;20179;-60
2023/04/22 04:20:13;;;;;;;2.17;1.77;;;15.90;57.70;;;;;;5074917;28;20573;-60
2023/04/22 04:22:38;;;;;;;1.83;1.73;;;15.90;57.80;;;;;;5075021;28;20663;-61
2023/04/22 04:25:05;;;;;;;1.77;1.67;;;15.90;57.80;;;;;;5074197;28;20680;-61
2023/04/22 04:27:31;;;;;;;2.60;2.40;;;15.90;57.80;;;;;;5074956;28;20248;-62
2023/04/22 04:29:57;;;;;;;1.90;1.80;;;15.90;57.70;;;;;;5074869;28;20201;-62
2023/04/22 04:32:24;;;;;;;1.58;1.48;;;15.90;57.80;;;;;;5073574;28;20209;-62
2023/04/22 04:34:49;;;;;;;1.60;1.50;;;15.90;57.80;;;;;;5074992;28;20265;-62
2023/04/22 04:37:15;;;;;;;1.92;1.83;;;15.90;58.40;;;;;;5074488;28;20181;-62
2023/04/22 04:39:42;;;;;;;1.77;1.67;;;15.90;57.80;;;;;;5074314;28;20186;-61
2023/04/22 04:42:08;;;;;;;1.98;1.88;;;15.90;57.80;;;;;;5074488;28;20182;-62
2023/04/22 04:44:34;;;;;;;1.70;1.60;;;15.90;57.80;;;;;;5073734;28;20594;-62
2023/04/22 04:47:00;;;;;;;2.08;1.88;;;15.90;57.80;;;;;;5074795;28;20205;-61
2023/04/22 04:49:26;;;;;;;1.88;1.77;;;15.80;57.80;;;;;;5074379;28;20174;-61
2023/04/22 04:51:51;;;;;;;1.90;1.80;;;15.80;57.80;;;;;;5074010;28;20175;-61
2023/04/22 04:54:17;;;;;;;1.40;1.30;;;15.90;57.80;;;;;;5074214;28;20260;-62
2023/04/22 04:56:42;;;;;;;2.00;1.90;;;15.80;57.80;;;;;;5074566;28;20231;-61
2023/04/22 04:59:08;;;;;;;2.10;2.00;;;15.90;57.90;;;;;;5073325;28;20265;-62
2023/04/22 05:01:34;;;;;;;2.25;2.05;;;15.80;57.80;;;;;;5074251;28;20171;-62
2023/04/22 05:03:59;;;;;;;1.73;1.63;;;15.80;57.80;;;;;;5074466;28;20189;-62
2023/04/22 05:06:25;;;;;;;3.10;1.83;;;15.80;57.80;;;;;;5073223;28;20621;-61
2023/04/22 05:08:51;;;;;;;2.22;2.00;;;15.80;57.80;;;;;;5074311;28;20183;-61
2023/04/22 05:11:16;;;;;;;2.00;1.90;;;15.80;57.80;;;;;;5074045;28;20534;-61
2023/04/22 05:13:42;;;;;;;1.70;1.60;;;15.80;57.80;;;;;;5073359;28;20566;-62
2023/04/22 05:16:08;;;;;;;1.80;1.70;;;15.90;57.90;;;;;;5074010;28;20652;-61
2023/04/22 05:18:33;;;;;;;2.20;2.00;;;15.80;57.90;;;;;;5072820;28;20185;-62
2023/04/22 05:20:59;;;;;;;2.92;2.42;;;15.80;57.80;;;;;;5073449;28;20170;-61
2023/04/22 05:23:25;;;;;;;2.03;1.90;;;15.80;57.80;;;;;;5073434;28;20237;-61
2023/04/22 05:25:50;;;;;;;1.83;1.70;;;15.80;57.80;;;;;;5074231;28;20174;-62
2023/04/22 05:28:16;;;;;;;2.10;2.00;;;15.80;57.80;;;;;;5072410;28;20182;-61
2023/04/22 05:30:41;;;;;;;2.13;1.85;;;15.80;57.90;;;;;;5073805;28;20214;-62
2023/04/22 05:33:07;;;;;;;1.90;1.80;;;15.80;57.80;;;;;;5073514;28;20241;-63
2023/04/22 05:35:34;;;;;;;2.00;1.90;;;15.80;57.90;;;;;;5073004;28;20171;-63
2023/04/22 05:37:59;;;;;;;1.92;1.83;;;15.80;57.80;;;;;;5073689;28;20181;-62
2023/04/22 05:40:25;;;;;;;2.10;2.00;;;15.80;57.80;;;;;;5073366;28;20174;-62
2023/04/22 05:42:50;;;;;;;2.05;1.90;;;15.80;57.90;;;;;;5072736;28;20170;-62
2023/04/22 05:45:16;;;;;;;1.80;1.70;;;15.80;57.90;;;;;;5073269;28;20179;-62
2023/04/22 05:47:42;;;;;;;1.90;1.80;;;15.80;57.90;;;;;;5072800;28;20249;-61
2023/04/22 05:50:08;;;;;;;1.83;1.73;;;15.80;58.50;;;;;;5073124;28;20218;-61
2023/04/22 05:52:33;;;;;;;2.10;2.00;;;15.80;57.90;;;;;;5073219;28;20178;-61
2023/04/22 05:54:59;;;;;;;2.28;2.13;;;15.80;57.90;;;;;;5072587;28;20175;-62
2023/04/22 05:57:24;;;;;;;1.73;1.63;;;15.80;57.80;;;;;;5072878;28;20244;-62
2023/04/22 05:59:50;;;;;;;2.15;2.00;;;15.80;57.80;;;;;;5072189;28;20174;-62
2023/04/22 06:02:16;;;;;;;2.08;1.95;;;15.80;57.80;;;;;;5072252;28;20173;-62
2023/04/22 06:04:42;;;;;;;2.80;2.03;;;15.90;57.90;;;;;;5073208;28;20167;-62
2023/04/22 06:07:07;;;;;;;1.92;1.83;;;15.90;58.00;;;;;;5072651;28;20178;-61
2023/04/22 06:09:33;;;;;;;2.20;2.10;;;15.90;57.90;;;;;;5072455;28;20197;-61
2023/04/22 06:11:58;;;;;;;2.03;1.75;;;16.10;57.90;;;;;;5073051;28;20660;-61
2023/04/22 06:14:24;;;;;;;1.88;1.77;;;16.20;57.70;;;;;;5072737;28;20202;-60
2023/04/22 06:16:51;;;;;;;1.73;1.63;;;16.30;57.60;;;;;;5072575;28;20185;-61
2023/04/22 06:19:17;;;;;;;1.90;1.80;;;16.50;57.30;;;;;;5072798;28;20657;-61
2023/04/22 06:21:42;;;;;;;3.17;1.88;;;16.70;57.30;;;;;;5073247;28;20249;-61
2023/04/22 06:24:09;;;;;;;1.90;1.70;;;16.90;57.00;;;;;;5071841;28;20313;-61
2023/04/22 06:26:35;;;;;;;1.77;1.67;;;17.10;56.80;;;;;;5072952;28;20174;-61
2023/04/22 06:29:04;;;;;;;2.20;1.75;;;17.20;56.60;;;;;;5071915;28;20252;-62
2023/04/22 06:31:30;;;;;;;1.83;1.67;;;17.40;56.40;;;;;;5071982;28;20174;-62
2023/04/22 06:33:55;;;;;;;4.68;1.95;;;17.50;56.30;;;;;;5072995;28;20681;-63
2023/04/22 06:36:21;;;;;;;1.63;1.40;;;17.60;56.10;;;;;;5072493;28;20178;-62
2023/04/22 06:38:46;;;;;;;2.85;1.90;;;17.70;56.00;;;;;;5071718;28;20170;-62
2023/04/22 06:41:12;;;;;;;2.17;1.92;;;17.80;55.80;;;;;;5071794;28;20246;-62
2023/04/22 06:43:38;;;;;;;4.88;1.77;;;17.90;55.70;;;;;;5073052;28;20697;-63
2023/04/22 06:46:03;;;;;;;5.65;2.15;;;18.00;55.80;;;;;;5072296;28;20178;-62
2023/04/22 06:48:29;;;;;;;5.43;1.92;;;18.00;56.00;;;;;;5072664;28;20178;-61
2023/04/22 06:50:56;;;;;;;1.75;1.63;;;18.00;56.00;;;;;;5072508;28;20235;-62
2023/04/22 06:53:21;;;;;;;1.70;1.60;;;18.00;56.20;;;;;;5072513;28;20210;-62
2023/04/22 06:55:47;;;;;;;3.28;1.95;;;18.00;56.40;;;;;;5072518;28;20175;-62
2023/04/22 06:58:12;;;;;;;2.78;1.85;;;18.00;56.40;;;;;;5071764;28;20253;-63
2023/04/22 07:00:38;;;;;;;6.30;2.10;;;17.90;56.60;;;;;;5072486;28;20640;-63
2023/04/22 07:03:03;;;;;;;2.33;2.13;;;17.80;56.60;;;;;;5072429;28;20214;-63
2023/04/22 07:05:29;;;;;;;4.15;2.70;;;17.80;56.80;;;;;;5071610;28;20194;-62
2023/04/22 07:07:54;;;;;;;3.33;2.00;;;17.70;56.90;;;;;;5072758;28;20530;-61
2023/04/22 07:10:20;;;;;;;2.63;2.10;;;17.70;57.00;;;;;;5072147;28;20629;-60
2023/04/22 07:12:45;;;;;;;7.20;2.55;;;17.60;57.20;;;;;;5071688;28;20194;-61
2023/04/22 07:15:11;;;;;;;4.75;2.33;;;17.60;57.60;;;;;;5072376;28;20182;-60
2023/04/22 07:17:36;;;;;;;3.00;1.90;;;17.50;57.80;;;;;;5072534;28;20177;-62
2023/04/22 07:20:02;;;;;;;4.68;2.38;;;17.60;58.00;;;;;;5071579;28;20170;-62
2023/04/22 07:22:28;;;;;;;4.28;2.40;;;17.50;57.90;;;;;;5071862;28;20178;-62
2023/04/22 07:24:53;;;;;;;4.13;2.22;;;17.50;57.90;;;;;;5072132;28;20320;-62
2023/04/22 07:27:19;;;;;;;3.17;2.17;;;17.50;58.00;;;;;;5071446;28;20174;-63
2023/04/22 07:29:45;;;;;;;5.25;2.33;;;17.50;58.00;;;;;;5072284;28;20531;-65
2023/04/22 07:32:10;;;;;;;4.13;2.17;;;17.50;58.00;;;;;;5072023;28;20166;-66
2023/04/22 07:34:36;;;;;;;3.70;2.78;;;17.50;58.20;;;;;;5071810;28;20222;-64
2023/04/22 07:37:01;;;;;;;6.38;2.13;;;17.40;58.10;;;;;;5072184;28;20171;-64
2023/04/22 07:39:27;;;;;;;6.20;2.42;;;17.40;58.10;;;;;;5071821;28;20173;-63
2023/04/22 07:41:52;;;;;;;3.58;2.00;;;17.40;58.30;;;;;;5071644;28;20512;-63
2023/04/22 07:44:20;;;;;;;4.10;2.17;;;17.40;58.30;;;;;;5072102;28;20258;-63
2023/04/22 07:46:46;;;;;;;4.20;2.00;;;17.50;58.50;;;;;;5072402;28;20178;-62
2023/04/22 07:49:12;;;;;;;3.65;2.03;;;17.50;58.50;;;;;;5071359;28;20181;-63
2023/04/22 07:51:38;;;;;;;2.38;2.17;;;17.40;58.60;;;;;;5074288;28;20174;-62
2023/04/22 07:54:04;;;;;;;3.70;2.15;;;17.50;58.60;;;;;;5075690;28;20722;-62
2023/04/22 07:56:29;;;;;;;2.58;1.95;;;17.40;58.60;;;;;;5075035;28;20175;-62
2023/04/22 07:58:55;;;;;;;3.53;2.38;;;17.40;58.60;;;;;;5075653;28;20190;-63
2023/04/22 08:01:20;;;;;;;4.38;1.95;;;17.50;58.70;;;;;;5074770;28;20254;-62
2023/04/22 08:03:46;;;;;;;4.82;2.30;;;17.40;58.60;;;;;;5075565;28;20167;-61
2023/04/22 08:06:11;;;;;;;2.50;2.22;;;17.40;58.60;;;;;;5075425;28;20231;-64
2023/04/22 08:08:37;;;;;;;4.10;2.35;;;17.40;58.70;;;;;;5073533;28;20928;-63
2023/04/22 08:11:03;;;;;;;4.07;2.05;;;17.40;58.60;;;;;;5075363;28;20704;-64
2023/04/22 08:13:28;;;;;;;4.38;2.50;;;17.50;58.60;;;;;;5075241;28;20239;-64
2023/04/22 08:15:54;;;;;;;3.33;2.15;;;17.40;58.50;;;;;;5074582;28;20679;-64
2023/04/22 08:18:19;;;;;;;2.15;1.95;;;17.40;58.60;;;;;;5074977;28;20178;-64
2023/04/22 08:20:46;;;;;;;2.78;2.45;;;17.40;58.60;;;;;;5074085;28;20528;-63
2023/04/22 08:23:11;;;;;;;3.13;2.00;;;17.40;58.70;;;;;;5073761;28;20699;-66
2023/04/22 08:25:37;;;;;;;4.32;2.10;;;17.50;58.70;;;;;;5075427;28;20258;-64
2023/04/22 08:28:02;;;;;;;5.22;2.42;;;17.50;58.60;;;;;;5074154;28;20239;-62
2023/04/22 08:30:28;;;;;;;4.65;2.33;;;17.50;58.60;;;;;;5074219;28;20166;-64
2023/04/22 08:32:53;;;;;;;8.07;2.63;;;17.50;58.60;;;;;;5075098;28;20228;-66
2023/04/22 08:35:19;;;;;;;6.25;2.60;;;17.60;58.50;;;;;;5074836;28;20578;-67
2023/04/22 08:37:44;;;;;;;5.85;2.28;;;17.60;58.60;;;;;;5074269;28;20629;-65
2023/04/22 08:40:10;;;;;;;3.67;2.05;;;17.50;58.50;;;;;;5074753;28;20174;-65
2023/04/22 08:42:36;;;;;;;4.07;2.38;;;17.60;58.50;;;;;;5075086;28;20181;-64
2023/04/22 08:45:04;;;;;;;3.85;1.95;;;17.60;58.50;;;;;;5074173;28;20170;-64
2023/04/22 08:47:31;;;;;;;6.00;1.95;;;17.50;58.50;;;;;;5075021;28;20178;-64
2023/04/22 08:49:57;;;;;;;5.00;2.00;;;17.60;58.60;;;;;;5074801;28;20521;-63
2023/04/22 08:52:23;;;;;;;5.68;2.20;;;17.50;58.50;;;;;;5073599;28;20178;-64
2023/04/22 08:54:48;;;;;;;3.15;1.55;;;17.60;58.50;;;;;;5074603;28;20263;-64
2023/04/22 08:57:14;;;;;;;2.80;2.00;;;17.60;58.50;;;;;;5074233;28;20617;-65
2023/04/22 08:59:40;;;;;;;3.15;2.10;;;17.70;58.50;;;;;;5072840;28;20178;-65
2023/04/22 09:02:07;;;;;;;3.85;1.92;;;17.70;58.50;;;;;;5072487;28;20163;-65
2023/04/22 09:04:32;;;;;;;2.97;2.15;;;17.70;58.50;;;;;;5072709;28;20592;-65
2023/04/22 09:06:59;;;;;;;2.92;2.33;;;17.60;58.50;;;;;;5072794;28;20308;-64
2023/04/22 09:09:24;;;;;;;5.20;2.03;;;17.60;58.60;;;;;;5072776;28;20572;-65
2023/04/22 09:11:50;;;;;;;3.83;2.10;;;17.70;58.60;;;;;;5073535;28;20189;-62
2023/04/22 09:14:16;;;;;;;2.95;2.13;;;17.70;58.60;;;;;;5073657;28;20214;-63
2023/04/22 09:16:45;;;;;;;2.92;1.80;;;17.70;58.60;;;;;;5074274;28;20288;-62
2023/04/22 09:19:12;;;;;;;2.70;2.20;;;17.70;58.80;;;;;;5071918;28;20228;-62
2023/04/22 09:21:38;;;;;;;2.83;2.00;;;17.80;58.80;;;;;;5074008;28;20549;-62
2023/04/22 09:24:06;;;;;;;2.78;2.10;;;17.70;58.80;;;;;;5072720;28;20363;-62
2023/04/22 09:26:32;;;;;;;4.18;2.45;;;17.80;59.00;;;;;;5073491;28;20179;-62
2023/04/22 09:28:59;;;;;;;3.28;2.22;;;17.80;59.10;;;;;;5074217;28;20189;-63
2023/04/22 09:31:26;;;;;;;2.50;2.20;;;17.70;59.20;;;;;;5073687;28;20232;-63
2023/04/22 09:33:53;;;;;;;2.72;2.00;;;17.80;59.40;;;;;;5073195;28;20202;-63
2023/04/22 09:36:26;;;;;;;4.90;2.10;;;17.70;59.30;;;;;;5073493;28;20257;-63
2023/04/22 09:38:56;;;;;;;3.33;2.65;;;17.80;59.40;;;;;;5073950;28;20235;-63
2023/04/22 09:41:28;;;;;;;2.97;2.20;;;17.80;59.40;;;;;;5073124;28;20170;-63
2023/04/22 09:43:55;;;;;;;3.10;2.40;;;17.80;59.50;;;;;;5073918;28;20189;-63
2023/04/22 09:46:23;;;;;;;3.40;2.00;;;17.80;59.50;;;;;;5073406;28;20269;-62
2023/04/22 09:48:48;;;;;;;3.58;2.05;;;17.80;59.60;;;;;;5072779;28;20179;-62
2023/04/22 09:51:17;;;;;;;2.95;2.15;;;17.80;59.60;;;;;;5073389;28;20186;-62
2023/04/22 09:53:43;;;;;;;1.83;1.67;;;17.80;59.60;;;;;;5073405;28;20722;-62
2023/04/22 09:56:09;;;;;;;2.63;2.15;;;17.80;59.60;;;;;;5072373;28;20170;-63
2023/04/22 09:58:40;;;;;;;2.38;2.17;;;17.80;59.60;;;;;;5073262;28;20170;-63
2023/04/22 10:01:07;;;;;;;3.10;2.30;;;17.80;59.60;;;;;;5071035;28;20597;-63
2023/04/22 10:03:32;;;;;;;3.60;1.95;;;17.80;59.70;;;;;;5073455;28;20177;-63
2023/04/22 10:05:58;;;;;;;1.90;1.75;;;17.80;59.70;;;;;;5073382;28;20182;-62
2023/04/22 10:08:23;;;;;;;2.10;1.90;;;17.90;59.70;;;;;;5072284;28;20175;-62
2023/04/22 10:10:49;;;;;;;2.78;2.15;;;17.90;59.80;;;;;;5073033;28;20189;-62
2023/04/22 10:13:15;;;;;;;2.92;2.03;;;17.90;59.80;;;;;;5072750;28;20202;-62
2023/04/22 10:15:42;;;;;;;2.55;2.03;;;17.90;59.80;;;;;;5072272;28;20190;-62
2023/04/22 10:18:12;;;;;;;3.00;2.10;;;17.90;59.90;;;;;;5071131;28;20175;-62
2023/04/22 10:20:39;;;;;;;4.10;2.45;;;17.90;60.00;;;;;;5071863;28;20178;-62
2023/04/22 10:23:05;;;;;;;2.53;1.75;;;17.90;60.00;;;;;;5070705;28;20716;-62
2023/04/22 10:25:31;;;;;;;3.13;1.75;;;17.90;60.00;;;;;;5073221;28;20214;-62
2023/04/22 10:28:04;;;;;;;3.50;2.28;;;17.80;60.00;;;;;;5071722;28;20197;-62
2023/04/22 10:30:30;;;;;;;2.95;1.80;;;17.80;60.10;;;;;;5072064;28;20174;-63
2023/04/22 10:33:20;;;;;;;2.10;1.85;;;17.80;60.10;;;;;;5072802;28;20228;-64
2023/04/22 10:36:04;;;;;;;1.95;1.73;;;17.90;60.20;;;;;;5066503;28;20187;-63
2023/04/22 10:38:33;;;;;;;3.15;2.05;;;17.90;60.00;;;;;;5072743;28;20201;-63
2023/04/22 10:40:59;;;;;;;2.35;2.10;;;18.00;60.00;;;;;;5072753;28;20178;-63
2023/04/22 10:43:47;;;;;;;2.03;1.92;;;18.00;60.00;;;;;;5071898;28;20235;-63
2023/04/22 10:46:36;;;;;;;2.28;2.08;;;18.00;60.00;;;;;;5072405;28;20261;-62
2023/04/22 10:49:17;;;;;;;1.67;1.58;;;18.00;60.00;;;;;;5072692;28;20179;-62
2023/04/22 10:51:44;;;;;;;2.60;2.03;;;18.10;60.10;;;;;;5071956;28;20192;-63
2023/04/22 10:54:27;;;;;;;1.80;1.70;;;18.00;60.10;;;;;;5072324;28;20541;-63
2023/04/22 10:57:15;;;;;;;2.40;2.20;;;18.10;60.10;;;;;;5072847;28;20182;-63
2023/04/22 10:59:51;;;;;;;2.17;1.75;;;18.10;60.10;;;;;;5072555;28;20174;-64
2023/04/22 11:02:17;;;;;;;2.30;2.10;;;18.10;60.10;;;;;;5072206;28;20538;-63
2023/04/22 11:04:42;;;;;;;2.75;2.30;;;18.10;60.20;;;;;;5071907;28;20170;-63
2023/04/22 11:07:19;;;;;;;3.58;1.90;;;18.10;60.10;;;;;;5072262;28;20646;-62
2023/04/22 11:09:46;;;;;;;2.08;1.88;;;18.20;60.20;;;;;;5072463;28;20170;-62
2023/04/22 11:12:33;;;;;;;2.35;1.77;;;18.20;60.20;;;;;;5071379;28;20209;-62
2023/04/22 11:15:00;;;;;;;2.35;2.20;;;18.20;60.20;;;;;;5072358;28;20190;-62
2023/04/22 11:17:25;;;;;;;2.35;2.05;;;18.30;60.20;;;;;;5070977;28;20216;-62
2023/04/22 11:19:55;;;;;;;2.10;1.90;;;18.20;60.20;;;;;;5070515;28;20260;-62
2023/04/22 11:22:23;;;;;;;2.22;2.03;;;18.10;60.50;;;;;;5072083;28;20220;-62
2023/04/22 11:24:56;;;;;;;2.35;1.90;;;18.10;60.60;;;;;;5071048;28;20218;-62
2023/04/22 11:27:25;;;;;;;2.60;2.40;;;18.00;60.80;;;;;;5074975;28;20175;-63
2023/04/22 11:30:03;;;;;;;2.55;2.35;;;17.90;60.90;;;;;;5076415;28;20232;-63
2023/04/22 11:32:29;;;;;;;2.03;1.90;;;17.90;61.20;;;;;;5074957;28;20265;-64
2023/04/22 11:34:54;;;;;;;2.30;2.10;;;17.80;61.30;;;;;;5076204;28;20362;-64
2023/04/22 11:37:20;;;;;;;2.67;2.47;;;17.80;61.30;;;;;;5076012;28;20486;-64
2023/04/22 11:39:45;;;;;;;2.20;1.98;;;17.90;61.20;;;;;;5075514;28;20174;-63
2023/04/22 11:42:12;;;;;;;2.00;1.90;;;17.90;61.20;;;;;;5075859;28;20170;-63
2023/04/22 11:44:38;;;;;;;2.50;2.13;;;17.90;61.10;;;;;;5076189;28;20228;-64
2023/04/22 11:47:03;;;;;;;1.88;1.73;;;17.90;61.20;;;;;;5075273;28;20170;-64
2023/04/22 11:49:31;;;;;;;2.67;2.47;;;17.90;61.30;;;;;;5075543;28;20179;-62
2023/04/22 11:51:57;;;;;;;2.20;2.00;;;17.90;61.30;;;;;;5075979;28;20175;-63
2023/04/22 11:54:35;;;;;;;2.17;1.83;;;17.90;61.30;;;;;;5074843;28;20250;-63
2023/04/22 11:57:03;;;;;;;2.45;2.25;;;17.90;61.40;;;;;;5075848;28;20590;-63
2023/04/22 11:59:28;;;;;;;2.10;1.90;;;17.90;61.40;;;;;;5075332;28;20178;-64
2023/04/22 12:01:54;;;;;;;2.38;2.20;;;17.90;61.50;;;;;;5074860;28;20228;-64
2023/04/22 12:04:20;;;;;;;2.50;2.30;;;17.80;61.50;;;;;;5075215;28;20736;-63
2023/04/22 12:06:46;;;;;;;2.33;2.20;;;17.80;61.60;;;;;;5075830;28;20269;-62
2023/04/22 12:09:11;;;;;;;2.40;2.20;;;17.80;61.70;;;;;;5074488;28;20253;-62
2023/04/22 12:11:38;;;;;;;3.17;2.25;;;17.70;61.70;;;;;;5075613;28;20178;-62
2023/04/22 12:14:06;;;;;;;2.50;2.30;;;17.70;61.80;;;;;;5075477;28;20205;-63
2023/04/22 12:16:39;;;;;;;2.58;2.38;;;17.70;61.80;;;;;;5074569;28;20178;-63
2023/04/22 12:19:05;;;;;;;2.60;2.40;;;17.70;62.00;;;;;;5073679;28;20194;-63
2023/04/22 12:21:31;;;;;;;2.25;2.05;;;17.60;62.20;;;;;;5074382;28;20182;-62
2023/04/22 12:24:21;;;;;;;2.53;2.05;;;17.60;62.20;;;;;;5075131;28;20324;-62
2023/04/22 12:26:46;;;;;;;2.80;2.22;;;17.60;62.20;;;;;;5075245;28;20177;-62
2023/04/22 12:29:12;;;;;;;2.47;2.28;;;17.50;62.40;;;;;;5074204;28;20174;-63
2023/04/22 12:31:37;;;;;;;2.35;2.15;;;17.50;62.30;;;;;;5075175;28;20174;-64
2023/04/22 12:34:03;;;;;;;1.98;1.88;;;17.50;62.40;;;;;;5075266;28;20218;-64
2023/04/22 12:36:31;;;;;;;3.05;2.40;;;17.50;62.30;;;;;;5073709;28;20223;-64
2023/04/22 12:38:56;;;;;;;2.20;2.00;;;17.50;62.40;;;;;;5074190;28;20572;-63
2023/04/22 12:41:22;;;;;;;2.17;2.08;;;17.50;62.40;;;;;;5074641;28;20621;-63
2023/04/22 12:43:48;;;;;;;2.22;2.05;;;17.50;62.40;;;;;;5074255;28;20173;-63